createdAt,value
2023-05-21T00:00:45.904Z,102855.16
2023-05-21T00:03:16.332Z,102851.72
2023-05-21T00:05:47.342Z,102859.59
2023-05-21T00:08:15.625Z,102869.88
2023-05-21T00:10:43.603Z,102857.25
2023-05-21T00:13:11.694Z,102858.00
2023-05-21T00:15:40.025Z,102826.94
2023-05-21T00:18:08.084Z,102858.69
2023-05-21T00:20:37.619Z,102868.16
2023-05-21T00:23:05.685Z,102862.91
2023-05-21T00:25:33.904Z,102868.09
2023-05-21T00:28:02.348Z,102845.75
2023-05-21T00:30:30.431Z,102870.69
2023-05-21T00:33:02.948Z,102866.31
2023-05-21T00:35:31.567Z,102875.47
2023-05-21T00:38:01.881Z,102872.97
2023-05-21T00:40:29.887Z,102878.72
2023-05-21T00:42:58.320Z,102869.25
2023-05-21T00:45:26.341Z,102873.50
2023-05-21T00:47:55.710Z,102865.81
2023-05-21T00:50:24.625Z,102864.19
2023-05-21T00:52:53.420Z,102860.81
2023-05-21T00:55:23.182Z,102864.25
2023-05-21T00:57:51.623Z,102861.53
2023-05-21T01:00:20.354Z,102857.19
2023-05-21T01:02:50.749Z,102857.91
2023-05-21T01:05:18.883Z,102859.53
2023-05-21T01:07:48.412Z,102833.69
2023-05-21T01:10:16.597Z,102859.75
2023-05-21T01:12:48.882Z,102853.84
2023-05-21T01:15:17.571Z,102860.63
2023-05-21T01:17:46.591Z,102860.69
2023-05-21T01:20:18.294Z,102853.72
2023-05-21T01:22:53.936Z,102861.41
2023-05-21T01:25:22.230Z,102857.13
2023-05-21T01:27:50.347Z,102863.03
2023-05-21T01:30:20.182Z,102858.72
2023-05-21T01:32:54.216Z,102857.97
2023-05-21T01:35:27.015Z,102858.13
2023-05-21T01:38:03.503Z,102854.84
2023-05-21T01:40:38.390Z,102856.44
2023-05-21T01:43:08.551Z,102864.88
2023-05-21T01:45:39.431Z,102869.03
2023-05-21T01:48:09.326Z,102843.16
2023-05-21T01:50:39.581Z,102844.75
2023-05-21T01:53:08.967Z,102864.69
2023-05-21T01:55:39.711Z,102860.41
2023-05-21T01:58:08.412Z,102870.66
2023-05-21T02:00:37.623Z,102867.16
2023-05-21T02:03:05.778Z,102876.66
2023-05-21T02:05:33.966Z,102875.91
2023-05-21T02:08:02.496Z,102873.22
2023-05-21T02:10:31.861Z,102878.41
2023-05-21T02:13:00.082Z,102866.66
2023-05-21T02:15:28.399Z,102871.00
2023-05-21T02:17:56.563Z,102865.03
2023-05-21T02:20:24.635Z,102875.31
2023-05-21T02:22:52.723Z,102870.22
2023-05-21T02:25:20.882Z,102865.16
2023-05-21T02:27:58.949Z,102870.28
2023-05-21T02:30:26.997Z,102866.88
2023-05-21T02:32:55.285Z,102869.31
2023-05-21T02:35:23.427Z,102863.50
2023-05-21T02:37:51.593Z,102860.75
2023-05-21T02:40:19.774Z,102870.16
2023-05-21T02:42:48.108Z,102859.97
2023-05-21T02:45:17.519Z,102871.94
2023-05-21T02:47:45.677Z,102861.00
2023-05-21T02:50:15.264Z,102864.56
2023-05-21T02:52:43.221Z,102862.78
2023-05-21T02:55:14.242Z,102865.22
2023-05-21T02:57:42.312Z,102869.47
2023-05-21T03:00:11.756Z,102861.88
2023-05-21T03:02:41.587Z,102856.75
2023-05-21T03:05:09.976Z,102867.13
2023-05-21T03:07:37.997Z,102864.44
2023-05-21T03:10:07.176Z,102856.00
2023-05-21T03:12:35.292Z,102853.50
2023-05-21T03:15:03.495Z,102849.28
2023-05-21T03:17:32.231Z,102857.91
2023-05-21T03:20:01.892Z,102857.16
2023-05-21T03:22:29.945Z,102854.78
2023-05-21T03:25:01.811Z,102843.78
2023-05-21T03:27:30.020Z,102853.44
2023-05-21T03:29:59.553Z,102849.22
2023-05-21T03:32:27.658Z,102851.13
2023-05-21T03:34:55.889Z,102845.25
2023-05-21T03:37:25.581Z,102847.06
2023-05-21T03:39:53.549Z,102849.69
2023-05-21T03:42:21.715Z,102831.63
2023-05-21T03:44:49.669Z,102847.09
2023-05-21T03:47:20.754Z,102844.44
2023-05-21T03:49:52.293Z,102842.63
2023-05-21T03:52:20.232Z,102839.88
2023-05-21T03:54:49.720Z,102836.25
2023-05-21T03:57:18.048Z,102840.94
2023-05-21T03:59:46.240Z,102831.06
2023-05-21T04:02:14.375Z,102827.28
2023-05-21T04:04:43.553Z,102801.34
2023-05-21T04:07:14.731Z,102827.78
2023-05-21T04:09:43.045Z,102832.06
2023-05-21T04:12:12.573Z,102823.38
2023-05-21T04:14:42.894Z,102826.00
2023-05-21T04:17:12.820Z,102825.16
2023-05-21T04:19:41.051Z,102812.09
2023-05-21T04:22:09.175Z,102812.47
2023-05-21T04:24:38.241Z,102811.19
2023-05-21T04:27:07.222Z,102798.09
2023-05-21T04:29:37.690Z,102794.41
2023-05-21T04:32:06.333Z,102811.06
2023-05-21T04:34:35.064Z,102816.47
2023-05-21T04:37:03.289Z,102793.69
2023-05-21T04:39:31.850Z,102808.09
2023-05-21T04:42:00.151Z,102816.75
2023-05-21T04:44:28.159Z,102766.41
2023-05-21T04:47:00.597Z,102802.56
2023-05-21T04:49:28.829Z,102809.97
2023-05-21T04:51:57.780Z,102815.53
2023-05-21T04:54:26.118Z,102815.13
2023-05-21T04:56:54.244Z,102803.34
2023-05-21T04:59:22.922Z,102798.25
2023-05-21T05:01:51.026Z,102800.06
2023-05-21T05:04:20.622Z,102781.72
2023-05-21T05:06:48.688Z,102797.84
2023-05-21T05:09:16.850Z,102804.00
2023-05-21T05:11:44.934Z,102801.81
2023-05-21T05:14:12.927Z,102794.75
2023-05-21T05:16:41.300Z,102790.69
2023-05-21T05:19:09.395Z,102795.78
2023-05-21T05:21:38.893Z,102790.28
2023-05-21T05:24:07.693Z,102792.16
2023-05-21T05:26:35.842Z,102785.41
2023-05-21T05:29:03.887Z,102787.91
2023-05-21T05:31:32.065Z,102764.59
2023-05-21T05:34:00.177Z,102784.50
2023-05-21T05:36:28.331Z,102782.69
2023-05-21T05:38:57.740Z,102792.50
2023-05-21T05:41:27.108Z,102783.22
2023-05-21T05:43:55.246Z,102778.63
2023-05-21T05:46:23.341Z,102787.44
2023-05-21T05:48:51.435Z,102763.25
2023-05-21T05:51:19.665Z,102780.31
2023-05-21T05:53:47.854Z,102749.97
2023-05-21T05:56:17.873Z,102784.53
2023-05-21T05:58:45.907Z,102785.38
2023-05-21T06:01:14.458Z,102779.50
2023-05-21T06:03:42.757Z,102779.31
2023-05-21T06:06:11.277Z,102787.50
2023-05-21T06:08:40.628Z,102772.59
2023-05-21T06:11:08.730Z,102778.22
2023-05-21T06:13:38.419Z,102771.69
2023-05-21T06:16:07.648Z,102778.81
2023-05-21T06:18:35.913Z,102775.88
2023-05-21T06:21:04.054Z,102776.47
2023-05-21T06:23:32.713Z,102776.50
2023-05-21T06:26:00.986Z,102773.25
2023-05-21T06:28:28.994Z,102771.94
2023-05-21T06:30:58.660Z,102773.13
2023-05-21T06:33:27.567Z,102768.09
2023-05-21T06:35:55.763Z,102767.94
2023-05-21T06:38:23.993Z,102760.19
2023-05-21T06:40:52.168Z,102772.31
2023-05-21T06:43:21.513Z,102758.94
2023-05-21T06:45:49.937Z,102757.16
2023-05-21T06:48:19.476Z,102762.13
2023-05-21T06:50:47.487Z,102755.84
2023-05-21T06:53:16.587Z,102760.94
2023-05-21T06:55:45.676Z,102759.72
2023-05-21T06:58:13.609Z,102756.81
2023-05-21T07:00:41.789Z,102755.97
2023-05-21T07:03:09.989Z,102752.16
2023-05-21T07:05:39.972Z,102750.75
2023-05-21T07:08:09.088Z,102754.63
2023-05-21T07:10:38.145Z,102759.25
2023-05-21T07:13:06.206Z,102761.50
2023-05-21T07:15:34.425Z,102752.63
2023-05-21T07:18:02.679Z,102747.16
2023-05-21T07:20:30.976Z,102744.41
2023-05-21T07:23:00.620Z,102748.19
2023-05-21T07:25:28.709Z,102750.56
2023-05-21T07:27:56.688Z,102745.91
2023-05-21T07:30:27.637Z,102751.59
2023-05-21T07:32:55.891Z,102759.94
2023-05-21T07:35:23.964Z,102759.56
2023-05-21T07:37:51.964Z,102759.50
2023-05-21T07:40:21.673Z,102751.44
2023-05-21T07:42:49.574Z,102762.31
2023-05-21T07:45:17.529Z,102755.47
2023-05-21T07:47:46.408Z,102756.75
2023-05-21T07:50:15.358Z,102752.09
2023-05-21T07:52:43.455Z,102753.31
2023-05-21T07:55:15.665Z,102719.28
2023-05-21T07:57:45.524Z,102744.81
2023-05-21T08:00:17.461Z,102739.81
2023-05-21T08:02:45.685Z,102739.81
2023-05-21T08:05:14.010Z,102744.03
2023-05-21T08:07:42.410Z,102747.09
2023-05-21T08:10:10.998Z,102738.22
2023-05-21T08:12:39.023Z,102739.91
2023-05-21T08:15:09.692Z,102739.31
2023-05-21T08:17:37.687Z,102733.00
2023-05-21T08:20:09.087Z,102750.28
2023-05-21T08:22:37.245Z,102726.84
2023-05-21T08:25:05.718Z,102722.50
2023-05-21T08:27:33.814Z,102722.59
2023-05-21T08:30:02.018Z,102735.59
2023-05-21T08:32:31.559Z,102736.22
2023-05-21T08:35:00.836Z,102736.97
2023-05-21T08:37:29.008Z,102733.88
2023-05-21T08:39:56.967Z,102729.56
2023-05-21T08:42:37.049Z,102727.13
2023-05-21T08:45:07.286Z,102731.50
2023-05-21T08:47:37.969Z,102738.09
2023-05-21T08:50:06.748Z,102732.38
2023-05-21T08:52:34.829Z,102733.13
2023-05-21T08:55:04.963Z,102731.03
2023-05-21T08:57:32.965Z,102732.94
2023-05-21T09:00:01.881Z,102717.16
2023-05-21T09:02:34.443Z,102735.69
2023-05-21T09:05:05.717Z,102731.25
2023-05-21T09:07:40.960Z,102732.00
2023-05-21T09:10:13.289Z,102696.94
2023-05-21T09:12:41.798Z,102722.59
2023-05-21T09:15:10.877Z,102734.47
2023-05-21T09:17:39.032Z,102731.44
2023-05-21T09:20:12.532Z,102723.94
2023-05-21T09:22:45.147Z,102710.50
2023-05-21T09:25:14.563Z,102730.06
2023-05-21T09:27:42.620Z,102716.47
2023-05-21T09:30:15.557Z,102730.63
2023-05-21T09:32:46.228Z,102715.41
2023-05-21T09:35:16.447Z,102715.59
2023-05-21T09:37:45.332Z,102723.19
2023-05-21T09:40:15.460Z,102720.38
2023-05-21T09:42:47.138Z,102723.22
2023-05-21T09:45:19.566Z,102712.63
2023-05-21T09:47:49.063Z,102710.00
2023-05-21T09:50:24.765Z,102713.00
2023-05-21T09:52:54.026Z,102688.22
2023-05-21T09:55:24.904Z,102706.81
2023-05-21T09:57:53.449Z,102701.41
2023-05-21T10:00:22.896Z,102701.94
2023-05-21T10:02:54.570Z,102694.81
2023-05-21T10:05:28.302Z,102698.25
2023-05-21T10:08:01.149Z,102702.13
2023-05-21T10:10:30.976Z,102701.91
2023-05-21T10:13:01.824Z,102698.81
2023-05-21T10:15:33.640Z,102694.75
2023-05-21T10:18:04.807Z,102688.25
2023-05-21T10:20:34.774Z,102676.81
2023-05-21T10:23:03.116Z,102683.06
2023-05-21T10:25:32.778Z,102677.34
2023-05-21T10:28:03.939Z,102684.06
2023-05-21T10:30:33.076Z,102685.63
2023-05-21T10:33:03.163Z,102686.56
2023-05-21T10:35:31.220Z,102681.88
2023-05-21T10:38:03.352Z,102685.41
2023-05-21T10:40:31.887Z,102686.59
2023-05-21T10:43:26.532Z,102676.28
2023-05-21T10:46:17.727Z,102675.81
2023-05-21T10:49:07.721Z,102678.88
2023-05-21T10:51:46.409Z,102672.09
2023-05-21T10:54:40.159Z,102672.28
2023-05-21T10:57:15.886Z,102680.31
2023-05-21T10:59:45.075Z,102672.41
2023-05-21T11:02:16.291Z,102658.59
2023-05-21T11:04:49.197Z,102661.53
2023-05-21T11:07:24.494Z,102666.97
2023-05-21T11:09:56.315Z,102668.19
2023-05-21T11:12:24.346Z,102664.22
2023-05-21T11:14:58.418Z,102671.25
2023-05-21T11:17:40.750Z,102662.63
2023-05-21T11:20:11.947Z,102665.63
2023-05-21T11:22:40.087Z,102659.00
2023-05-21T11:25:10.116Z,102665.25
2023-05-21T11:27:39.279Z,102657.31
2023-05-21T11:30:08.749Z,102667.41
2023-05-21T11:32:41.127Z,102660.19
2023-05-21T11:35:10.236Z,102650.69
2023-05-21T11:37:41.953Z,102659.72
2023-05-21T11:40:27.214Z,102650.97
2023-05-21T11:42:56.420Z,102641.16
2023-05-21T11:45:29.462Z,102639.81
2023-05-21T11:47:59.190Z,102644.84
2023-05-21T11:50:27.467Z,102646.13
2023-05-21T11:52:56.070Z,102650.56
2023-05-21T11:55:27.663Z,102647.69
2023-05-21T11:57:56.541Z,102646.47
2023-05-21T12:00:24.637Z,102644.63
2023-05-21T12:02:55.935Z,102645.00
2023-05-21T12:05:27.168Z,102645.06
2023-05-21T12:07:57.648Z,102645.84
2023-05-21T12:10:27.001Z,102641.03
2023-05-21T12:12:57.251Z,102644.34
2023-05-21T12:15:27.552Z,102645.19
2023-05-21T12:17:56.877Z,102644.56
2023-05-21T12:20:27.210Z,102638.75
2023-05-21T12:22:55.180Z,102634.41
2023-05-21T12:25:23.396Z,102636.81
2023-05-21T12:27:58.064Z,102638.75
2023-05-21T12:30:26.817Z,102633.94
2023-05-21T12:32:56.849Z,102635.94
2023-05-21T12:35:25.111Z,102628.44
2023-05-21T12:37:56.035Z,102623.31
2023-05-21T12:40:37.216Z,102629.72
2023-05-21T12:43:07.319Z,102614.31
2023-05-21T12:45:36.757Z,102620.63
2023-05-21T12:48:07.526Z,102618.22
2023-05-21T12:50:36.460Z,102606.16
2023-05-21T12:53:04.600Z,102609.06
2023-05-21T12:55:33.080Z,102605.91
2023-05-21T12:58:08.799Z,102606.59
2023-05-21T13:00:38.257Z,102607.78
2023-05-21T13:03:07.489Z,102602.16
2023-05-21T13:05:36.202Z,102600.50
2023-05-21T13:08:04.548Z,102601.69
2023-05-21T13:10:32.692Z,102601.22
2023-05-21T13:13:03.101Z,102603.06
2023-05-21T13:15:33.273Z,102607.16
2023-05-21T13:18:01.869Z,102598.84
2023-05-21T13:20:30.186Z,102609.25
2023-05-21T13:22:58.615Z,102593.75
2023-05-21T13:25:29.241Z,102572.81
2023-05-21T13:27:58.418Z,102575.16
2023-05-21T13:30:26.598Z,102571.56
2023-05-21T13:32:56.451Z,102585.72
2023-05-21T13:35:24.653Z,102582.25
2023-05-21T13:37:55.099Z,102583.59
2023-05-21T13:40:23.830Z,102573.03
2023-05-21T13:42:51.815Z,102580.00
2023-05-21T13:45:21.551Z,102577.91
2023-05-21T13:47:49.645Z,102579.09
2023-05-21T13:50:19.158Z,102574.28
2023-05-21T13:52:47.498Z,102575.16
2023-05-21T13:55:16.870Z,102566.16
2023-05-21T13:57:45.792Z,102564.09
2023-05-21T14:00:16.220Z,102539.00
2023-05-21T14:02:45.122Z,102558.03
2023-05-21T14:05:13.990Z,102553.63
2023-05-21T14:07:43.577Z,102556.47
2023-05-21T14:10:12.369Z,102557.75
2023-05-21T14:12:40.874Z,102548.13
2023-05-21T14:15:10.234Z,102548.56
2023-05-21T14:17:40.246Z,102550.97
2023-05-21T14:20:09.813Z,102544.09
2023-05-21T14:22:37.937Z,102542.13
2023-05-21T14:25:08.858Z,102549.63
2023-05-21T14:27:38.652Z,102540.53
2023-05-21T14:30:07.690Z,102540.75
2023-05-21T14:32:37.179Z,102541.88
2023-05-21T14:35:06.315Z,102546.06
2023-05-21T14:37:34.354Z,102539.41
2023-05-21T14:40:02.431Z,102540.59
2023-05-21T14:42:32.187Z,102539.22
2023-05-21T14:45:07.417Z,102540.63
2023-05-21T14:47:46.116Z,102527.44
2023-05-21T14:50:14.349Z,102534.38
2023-05-21T14:52:43.235Z,102523.56
2023-05-21T14:55:12.453Z,102525.47
2023-05-21T14:57:41.833Z,102529.41
2023-05-21T15:00:11.658Z,102532.69
2023-05-21T15:02:40.916Z,102531.19
2023-05-21T15:05:12.254Z,102523.72
2023-05-21T15:07:40.373Z,102530.66
2023-05-21T15:10:09.935Z,102527.19
2023-05-21T15:12:38.041Z,102526.69
2023-05-21T15:15:08.617Z,102522.94
2023-05-21T15:17:37.205Z,102526.63
2023-05-21T15:20:06.225Z,102521.72
2023-05-21T15:22:34.725Z,102530.16
2023-05-21T15:25:03.682Z,102519.16
2023-05-21T15:27:31.796Z,102521.69
2023-05-21T15:30:00.239Z,102525.00
2023-05-21T15:32:29.809Z,102521.72
2023-05-21T15:34:58.183Z,102521.19
2023-05-21T15:37:26.626Z,102528.66
2023-05-21T15:39:54.818Z,102521.78
2023-05-21T15:42:22.834Z,102521.88
2023-05-21T15:44:50.786Z,102515.94
2023-05-21T15:47:19.268Z,102516.38
2023-05-21T15:49:48.770Z,102514.59
2023-05-21T15:52:17.050Z,102515.50
2023-05-21T15:54:45.123Z,102517.84
2023-05-21T15:57:13.308Z,102516.09
2023-05-21T15:59:41.440Z,102512.88
2023-05-21T16:02:10.570Z,102511.56
2023-05-21T16:04:38.681Z,102516.50
2023-05-21T16:07:08.133Z,102515.31
2023-05-21T16:09:37.729Z,102510.81
2023-05-21T16:12:06.292Z,102514.38
2023-05-21T16:14:36.754Z,102506.75
2023-05-21T16:17:04.981Z,102501.78
2023-05-21T16:19:33.093Z,102509.22
2023-05-21T16:22:01.657Z,102507.34
2023-05-21T16:24:31.165Z,102502.81
2023-05-21T16:26:59.369Z,102489.56
2023-05-21T16:29:27.424Z,102506.16
2023-05-21T16:31:55.633Z,102506.06
2023-05-21T16:34:23.698Z,102509.13
2023-05-21T16:36:52.276Z,102510.44
2023-05-21T16:39:22.921Z,102511.78
2023-05-21T16:41:54.008Z,102511.84
2023-05-21T16:44:22.039Z,102513.81
2023-05-21T16:46:52.513Z,102511.13
2023-05-21T16:49:20.791Z,102513.25
2023-05-21T16:51:48.763Z,102515.25
2023-05-21T16:54:16.964Z,102519.44
2023-05-21T16:56:45.079Z,102514.38
2023-05-21T16:59:14.372Z,102507.19
2023-05-21T17:01:43.874Z,102489.78
2023-05-21T17:04:12.258Z,102509.97
2023-05-21T17:06:40.165Z,102507.94
2023-05-21T17:09:08.216Z,102509.69
2023-05-21T17:11:36.307Z,102505.91
2023-05-21T17:14:04.268Z,102503.94
2023-05-21T17:16:33.884Z,102507.72
2023-05-21T17:19:02.135Z,102512.50
2023-05-21T17:21:30.198Z,102512.97
2023-05-21T17:23:58.280Z,102513.31
2023-05-21T17:26:26.549Z,102515.78
2023-05-21T17:28:54.629Z,102517.41
2023-05-21T17:31:23.180Z,102525.75
2023-05-21T17:33:52.674Z,102525.25
2023-05-21T17:36:23.376Z,102522.69
2023-05-21T17:38:51.897Z,102520.63
2023-05-21T17:41:19.955Z,102517.50
2023-05-21T17:43:47.911Z,102523.78
2023-05-21T17:46:18.080Z,102522.81
2023-05-21T17:48:46.210Z,102530.03
2023-05-21T17:51:15.558Z,102520.84
2023-05-21T17:53:43.752Z,102526.00
2023-05-21T17:56:12.000Z,102527.13
2023-05-21T17:58:39.904Z,102520.97
2023-05-21T18:01:08.259Z,102518.22
2023-05-21T18:03:36.571Z,102528.28
2023-05-21T18:06:05.065Z,102526.94
2023-05-21T18:08:34.486Z,102528.28
2023-05-21T18:11:02.707Z,102524.88
2023-05-21T18:13:30.941Z,102523.03
2023-05-21T18:15:59.979Z,102519.63
2023-05-21T18:18:27.978Z,102525.94
2023-05-21T18:20:55.923Z,102528.56
2023-05-21T18:23:23.945Z,102526.28
2023-05-21T18:25:53.351Z,102516.97
2023-05-21T18:28:21.613Z,102488.03
2023-05-21T18:30:49.667Z,102523.00
2023-05-21T18:33:18.003Z,102525.91
2023-05-21T18:35:45.945Z,102530.91
2023-05-21T18:38:14.330Z,102530.31
2023-05-21T18:40:42.596Z,102525.63
2023-05-21T18:43:11.995Z,102533.88
2023-05-21T18:45:40.051Z,102527.66
2023-05-21T18:48:08.459Z,102509.41
2023-05-21T18:50:37.286Z,102535.16
2023-05-21T18:53:06.357Z,102523.25
2023-05-21T18:55:35.629Z,102530.03
2023-05-21T18:58:03.666Z,102526.78
2023-05-21T19:00:34.277Z,102534.38
2023-05-21T19:03:02.509Z,102532.09
2023-05-21T19:05:30.654Z,102535.03
2023-05-21T19:07:59.512Z,102528.94
2023-05-21T19:10:27.764Z,102530.41
2023-05-21T19:12:55.821Z,102518.03
2023-05-21T19:15:23.960Z,102532.88
2023-05-21T19:17:53.473Z,102533.22
2023-05-21T19:20:26.545Z,102535.75
2023-05-21T19:22:55.398Z,102541.09
2023-05-21T19:25:23.535Z,102539.28
2023-05-21T19:27:52.946Z,102537.75
2023-05-21T19:30:20.982Z,102535.53
2023-05-21T19:32:49.118Z,102535.88
2023-05-21T19:35:18.856Z,102535.53
2023-05-21T19:37:46.959Z,102536.66
2023-05-21T19:40:17.622Z,102535.88
2023-05-21T19:42:45.944Z,102528.09
2023-05-21T19:45:15.580Z,102533.56
2023-05-21T19:47:44.524Z,102529.81
2023-05-21T19:50:12.882Z,102541.47
2023-05-21T19:52:42.329Z,102533.56
2023-05-21T19:55:10.871Z,102540.94
2023-05-21T19:57:39.901Z,102534.75
2023-05-21T20:00:10.510Z,102539.72
2023-05-21T20:02:38.591Z,102543.06
2023-05-21T20:05:07.649Z,102531.22
2023-05-21T20:07:35.691Z,102540.03
2023-05-21T20:10:06.534Z,102546.50
2023-05-21T20:12:34.832Z,102547.25
2023-05-21T20:15:06.978Z,102538.25
2023-05-21T20:17:36.209Z,102533.44
2023-05-21T20:20:11.238Z,102512.50
2023-05-21T20:22:41.141Z,102536.56
2023-05-21T20:25:11.030Z,102538.09
2023-05-21T20:27:39.921Z,102544.44
2023-05-21T20:30:09.507Z,102546.97
2023-05-21T20:32:38.197Z,102537.50
2023-05-21T20:35:08.959Z,102533.19
2023-05-21T20:37:37.011Z,102538.41
2023-05-21T20:40:07.071Z,102533.34
2023-05-21T20:42:36.770Z,102537.94
2023-05-21T20:45:05.325Z,102485.69
2023-05-21T20:47:33.981Z,102531.19
2023-05-21T20:50:02.895Z,102529.56
2023-05-21T20:52:31.003Z,102531.16
2023-05-21T20:55:00.148Z,102538.13
2023-05-21T20:57:28.550Z,102532.53
2023-05-21T20:59:57.999Z,102542.91
2023-05-21T21:02:27.051Z,102536.25
2023-05-21T21:04:56.326Z,102538.09
2023-05-21T21:07:24.426Z,102539.97
2023-05-21T21:09:52.500Z,102536.94
2023-05-21T21:14:51.998Z,102540.22
2023-05-21T21:17:21.729Z,102541.84
2023-05-21T21:19:49.836Z,102546.63
2023-05-21T21:22:18.688Z,102545.94
2023-05-21T21:24:46.763Z,102543.53
2023-05-21T21:27:14.722Z,102542.84
2023-05-21T21:29:42.765Z,102536.69
2023-05-21T21:32:10.948Z,102545.56
2023-05-21T21:34:40.370Z,102537.91
2023-05-21T21:37:08.531Z,102540.66
2023-05-21T21:39:36.585Z,102537.38
2023-05-21T21:42:04.883Z,102543.50
2023-05-21T21:44:32.960Z,102535.88
2023-05-21T21:47:01.037Z,102500.78
2023-05-21T21:49:29.019Z,102540.31
2023-05-21T21:51:59.609Z,102540.50
2023-05-21T21:54:28.293Z,102517.41
2023-05-21T21:56:56.519Z,102547.53
2023-05-21T21:59:24.582Z,102538.78
2023-05-21T22:01:52.709Z,102543.09
2023-05-21T22:04:20.807Z,102501.19
2023-05-21T22:06:48.932Z,102545.81
2023-05-21T22:09:18.427Z,102544.03
2023-05-21T22:11:46.652Z,102538.31
2023-05-21T22:14:14.766Z,102543.59
2023-05-21T22:16:43.298Z,102545.31
2023-05-21T22:19:12.941Z,102555.19
2023-05-21T22:21:42.102Z,102555.41
2023-05-21T22:24:20.631Z,102556.28
2023-05-21T22:26:59.850Z,102552.03
2023-05-21T22:29:27.953Z,102553.28
2023-05-21T22:31:56.179Z,102549.50
2023-05-21T22:34:25.538Z,102537.72
2023-05-21T22:36:53.989Z,102550.59
2023-05-21T22:39:22.049Z,102546.44
2023-05-21T22:41:50.255Z,102540.56
2023-05-21T22:44:20.443Z,102541.47
2023-05-21T22:46:49.534Z,102551.00
2023-05-21T22:49:17.691Z,102545.53
2023-05-21T22:51:46.505Z,102546.47
2023-05-21T22:54:14.583Z,102544.28
2023-05-21T22:56:43.331Z,102540.06
2023-05-21T22:59:11.334Z,102516.41
2023-05-21T23:01:40.934Z,102528.56
2023-05-21T23:04:09.201Z,102524.44
2023-05-21T23:06:37.206Z,102529.84
2023-05-21T23:09:05.297Z,102529.91
2023-05-21T23:11:33.528Z,102527.44
2023-05-21T23:14:01.618Z,102524.88
2023-05-21T23:16:30.909Z,102524.75
2023-05-21T23:19:01.357Z,102524.91
2023-05-21T23:21:29.369Z,102524.91
2023-05-21T23:23:57.432Z,102522.38
2023-05-21T23:26:26.106Z,102519.88
2023-05-21T23:28:54.061Z,102513.72
2023-05-21T23:31:22.300Z,102517.34
2023-05-21T23:33:51.878Z,102517.34
2023-05-21T23:36:21.425Z,102521.91
2023-05-21T23:38:49.515Z,102519.47
2023-05-21T23:41:17.701Z,102515.13
2023-05-21T23:43:45.766Z,102521.19
2023-05-21T23:46:13.807Z,102514.31
2023-05-21T23:48:42.077Z,102507.38
2023-05-21T23:51:10.080Z,102511.78
2023-05-21T23:53:39.552Z,102514.38
2023-05-21T23:56:08.213Z,102510.06
2023-05-21T23:58:36.146Z,102494.75
